createdAt,value
2022-10-30T05:41:20.797Z,63.84
2022-10-30T05:43:49.340Z,63.86
2022-10-30T05:46:17.857Z,63.97
2022-10-30T05:48:47.281Z,64.15
2022-10-30T05:51:15.451Z,64.27
2022-10-30T05:53:50.351Z,64.42
2022-10-30T05:56:21.206Z,64.48
2022-10-30T05:58:50.388Z,64.59
2022-10-30T06:01:18.982Z,64.73
2022-10-30T06:03:47.908Z,64.82
2022-10-30T06:06:16.030Z,64.87
2022-10-30T06:08:45.507Z,64.99
2022-10-30T06:11:37.117Z,65.05
2022-10-30T06:14:05.803Z,65.13
2022-10-30T06:16:41.185Z,65.20
2022-10-30T06:19:26.195Z,65.28
2022-10-30T06:21:59.965Z,65.34
2022-10-30T07:18:42.128Z,65.07
2022-10-30T07:21:10.763Z,65.10
2022-10-30T07:23:39.054Z,65.16
2022-10-30T07:26:39.814Z,65.32
2022-10-30T07:29:33.786Z,65.33
2022-10-30T07:32:13.926Z,65.51
2022-10-30T07:34:50.827Z,65.49
2022-10-30T07:37:25.345Z,65.46
2022-10-30T07:40:16.391Z,65.53
2022-10-30T07:43:05.162Z,65.62
2022-10-30T07:45:39.528Z,65.76
2022-10-30T07:48:26.955Z,65.76
2022-10-30T07:51:16.047Z,65.94
2022-10-30T07:53:44.627Z,65.91
2022-10-30T07:56:12.972Z,66.01
2022-10-30T07:59:07.616Z,66.06
2022-10-30T08:01:54.301Z,66.10
2022-10-30T08:04:33.104Z,66.03
2022-10-30T08:07:09.072Z,66.03
2022-10-30T08:09:38.061Z,66.16
2022-10-30T08:12:06.725Z,66.13
2022-10-30T08:14:35.306Z,66.10
2022-10-30T08:17:05.322Z,66.07
2022-10-30T08:19:34.009Z,66.16
2022-10-30T08:22:02.321Z,66.18
2022-10-30T08:24:33.236Z,66.22
2022-10-30T08:27:02.848Z,66.05
2022-10-30T08:29:32.565Z,66.05
2022-10-30T08:32:01.572Z,66.18
2022-10-30T08:34:59.090Z,66.25
2022-10-30T08:37:27.676Z,66.10
2022-10-30T08:39:55.806Z,66.06
2022-10-30T08:42:54.299Z,65.99
2022-10-30T08:45:29.709Z,65.93
2022-10-30T08:48:17.114Z,65.93
2022-10-30T08:50:45.979Z,65.79
2022-10-30T08:53:16.992Z,65.76
2022-10-30T08:55:46.759Z,65.81
2022-10-30T08:58:22.323Z,65.82
2022-10-30T09:00:50.890Z,65.78
2022-10-30T09:03:18.994Z,65.70
2022-10-30T09:06:06.791Z,65.62
2022-10-30T09:08:53.916Z,65.52
2022-10-30T09:11:34.230Z,65.50
2022-10-30T09:14:02.301Z,65.46
2022-10-30T09:16:30.570Z,65.27
2022-10-30T09:19:02.057Z,65.30
2022-10-30T09:21:31.357Z,65.30
2022-10-30T09:23:59.548Z,65.28
2022-10-30T09:26:37.545Z,65.29
2022-10-30T09:29:12.966Z,65.33
2022-10-30T09:32:00.938Z,65.21
2022-10-30T09:34:31.517Z,65.26
2022-10-30T09:37:11.590Z,65.15
2022-10-30T09:39:39.838Z,65.10
2022-10-30T09:42:20.040Z,65.24
2022-10-30T09:45:29.430Z,65.11
2022-10-30T09:48:39.430Z,65.07
2022-10-30T09:51:25.609Z,65.14
2022-10-30T09:54:02.408Z,65.08
2022-10-30T09:56:48.069Z,65.17
2022-10-30T09:59:40.525Z,65.11
2022-10-30T10:02:36.161Z,65.12
2022-10-30T10:05:14.798Z,65.06
2022-10-30T10:08:10.393Z,65.10
2022-10-30T10:11:21.946Z,65.06
2022-10-30T10:14:09.617Z,65.11
2022-10-30T10:16:40.874Z,65.07
2022-10-30T10:19:19.344Z,65.05
2022-10-30T10:21:57.849Z,65.13
2022-10-30T10:24:30.401Z,65.27
2022-10-30T10:27:42.575Z,65.25
2022-10-30T10:30:16.011Z,65.30
2022-10-30T10:33:03.797Z,65.35
2022-10-30T10:35:52.695Z,65.29
2022-10-30T10:38:39.338Z,65.20
2022-10-30T10:41:41.575Z,65.27
2022-10-30T10:44:34.674Z,65.28
2022-10-30T10:47:12.073Z,65.17
2022-10-30T10:50:18.012Z,65.24
2022-10-30T10:53:02.541Z,65.09
2022-10-30T10:55:37.223Z,65.23
2022-10-30T10:58:24.452Z,65.30
2022-10-30T11:00:53.611Z,65.20
2022-10-30T11:03:28.229Z,65.30
2022-10-30T11:06:17.833Z,65.29
2022-10-30T11:08:47.060Z,65.22
2022-10-30T11:11:15.697Z,65.21
2022-10-30T11:13:45.729Z,65.30
2022-10-30T11:16:32.102Z,65.13
2022-10-30T11:19:03.808Z,65.25
2022-10-30T11:21:38.276Z,65.32
2022-10-30T11:24:33.729Z,65.24
2022-10-30T11:27:24.113Z,65.09
2022-10-30T11:30:05.976Z,65.15
2022-10-30T11:32:35.095Z,65.00
2022-10-30T11:35:16.086Z,65.26
2022-10-30T11:37:46.552Z,65.15
2022-10-30T11:40:15.121Z,65.19
2022-10-30T11:43:06.802Z,65.18
2022-10-30T11:45:40.200Z,65.24
2022-10-30T11:48:23.205Z,65.20
2022-10-30T11:50:56.508Z,65.14
2022-10-30T11:53:51.217Z,65.12
2022-10-30T11:56:22.165Z,65.08
2022-10-30T11:58:57.402Z,65.04
2022-10-30T12:01:36.435Z,65.07
2022-10-30T12:04:22.422Z,65.12
2022-10-30T12:07:08.231Z,65.06
2022-10-30T12:09:45.287Z,64.95
2022-10-30T12:12:33.072Z,65.02
2022-10-30T12:15:14.833Z,64.97
2022-10-30T12:17:52.811Z,65.04
2022-10-30T12:20:21.851Z,64.94
2022-10-30T12:22:50.494Z,64.99
2022-10-30T12:25:32.802Z,65.00
2022-10-30T12:28:16.954Z,64.90
2022-10-30T12:30:51.466Z,65.03
2022-10-30T12:33:31.879Z,65.04
2022-10-30T12:36:05.727Z,65.00
2022-10-30T12:38:52.748Z,65.02
2022-10-30T12:41:33.115Z,64.89
2022-10-30T12:44:13.774Z,65.04
2022-10-30T12:46:47.687Z,65.03
2022-10-30T12:49:31.502Z,64.96
2022-10-30T12:52:34.049Z,64.90
2022-10-30T12:55:08.140Z,65.01
2022-10-30T12:57:53.810Z,65.04
2022-10-30T13:00:22.128Z,64.98
2022-10-30T13:03:00.832Z,65.01
2022-10-30T13:05:40.250Z,65.04
2022-10-30T13:08:33.642Z,65.02
2022-10-30T13:11:17.872Z,64.93
2022-10-30T13:13:50.378Z,64.91
2022-10-30T13:16:25.982Z,64.94
2022-10-30T13:18:58.010Z,64.93
2022-10-30T13:21:52.466Z,65.00
2022-10-30T13:24:28.085Z,64.87
2022-10-30T13:27:05.281Z,64.84
2022-10-30T13:30:19.721Z,64.91
2022-10-30T13:33:15.878Z,64.92
2022-10-30T13:36:05.840Z,64.82
2022-10-30T13:39:08.309Z,64.84
2022-10-30T13:41:43.454Z,64.92
2022-10-30T13:44:31.495Z,64.88
2022-10-30T13:47:21.893Z,64.86
2022-10-30T13:50:15.950Z,64.98
2022-10-30T13:52:49.882Z,64.97
2022-10-30T13:55:24.169Z,64.89
2022-10-30T13:58:19.817Z,64.92
2022-10-30T14:01:13.357Z,64.75
2022-10-30T14:04:20.376Z,64.76
2022-10-30T14:07:08.131Z,64.84
2022-10-30T14:09:43.615Z,64.82
2022-10-30T14:12:50.019Z,64.83
2022-10-30T14:15:24.562Z,64.80
2022-10-30T14:18:11.783Z,64.86
2022-10-30T14:20:41.582Z,64.76
2022-10-30T14:23:19.863Z,64.88
2022-10-30T14:26:06.608Z,64.87
2022-10-30T14:28:45.391Z,64.79
2022-10-30T14:31:19.726Z,64.90
2022-10-30T14:33:49.598Z,64.84
2022-10-30T14:36:19.295Z,64.84
2022-10-30T14:39:09.239Z,64.77
2022-10-30T14:41:59.498Z,64.94
2022-10-30T14:44:39.323Z,64.99
2022-10-30T14:47:45.322Z,64.85
2022-10-30T14:50:37.184Z,64.86
2022-10-30T14:53:30.193Z,64.81
2022-10-30T14:56:14.967Z,64.84
2022-10-30T14:58:43.447Z,65.00
2022-10-30T15:01:20.641Z,64.98
2022-10-30T15:04:00.561Z,64.97
2022-10-30T15:06:51.616Z,64.87
2022-10-30T15:09:32.265Z,64.92
2022-10-30T15:12:17.504Z,64.89
2022-10-30T15:14:53.885Z,64.96
2022-10-30T15:17:33.255Z,64.95
2022-10-30T15:20:05.155Z,64.76
2022-10-30T15:22:35.406Z,64.77
2022-10-30T15:25:05.039Z,64.78
2022-10-30T15:27:35.809Z,64.76
2022-10-30T15:30:05.089Z,64.61
2022-10-30T15:32:33.915Z,64.69
2022-10-30T15:35:05.566Z,64.67
2022-10-30T15:37:34.244Z,64.65
2022-10-30T15:40:20.235Z,64.78
2022-10-30T15:42:51.872Z,64.74
2022-10-30T15:45:44.819Z,64.74
2022-10-30T15:48:28.177Z,64.86
2022-10-30T15:51:04.190Z,64.70
2022-10-30T15:53:45.369Z,64.70
2022-10-30T15:56:24.438Z,64.79
2022-10-30T15:59:02.278Z,64.85
2022-10-30T16:01:38.909Z,64.79
2022-10-30T16:04:19.564Z,64.83
2022-10-30T16:06:57.889Z,64.84
2022-10-30T16:09:28.411Z,64.83
2022-10-30T16:12:00.886Z,64.92
2022-10-30T16:14:33.007Z,64.87
2022-10-30T16:17:03.996Z,65.07
2022-10-30T16:19:47.243Z,64.95
2022-10-30T16:22:24.411Z,65.07
2022-10-30T16:24:55.555Z,64.83
2022-10-30T16:27:26.025Z,65.04
2022-10-30T16:30:00.278Z,65.00
2022-10-30T16:32:31.647Z,65.05
2022-10-30T16:35:02.850Z,65.11
2022-10-30T16:37:36.976Z,65.16
2022-10-30T16:40:16.636Z,65.10
2022-10-30T16:42:58.481Z,65.18
2022-10-30T16:45:34.119Z,65.17
2022-10-30T16:48:09.502Z,65.24
2022-10-30T16:50:39.122Z,65.27
2022-10-30T16:53:24.277Z,65.36
2022-10-30T16:55:55.139Z,65.36
2022-10-30T16:58:30.470Z,65.38
2022-10-30T17:01:07.111Z,65.41
2022-10-30T17:03:41.594Z,65.54
2022-10-30T17:06:27.754Z,65.37
2022-10-30T17:08:59.857Z,65.43
2022-10-30T17:11:46.843Z,65.51
2022-10-30T17:14:20.456Z,65.60
2022-10-30T17:17:00.295Z,65.64
2022-10-30T17:19:31.562Z,65.66
2022-10-30T17:22:04.020Z,65.65
2022-10-30T17:24:34.017Z,65.76
2022-10-30T17:27:04.925Z,65.78
2022-10-30T17:29:53.915Z,65.80
2022-10-30T17:32:23.464Z,65.80
2022-10-30T17:35:00.810Z,65.76
2022-10-30T17:37:29.464Z,65.78
2022-10-30T17:40:00.724Z,65.77
2022-10-30T17:42:28.911Z,65.86
2022-10-30T17:44:57.663Z,65.87
2022-10-30T17:47:29.146Z,65.87
2022-10-30T17:49:57.629Z,65.93
2022-10-30T17:52:26.333Z,65.95
2022-10-30T17:54:58.112Z,66.01
2022-10-30T17:57:27.181Z,65.97
2022-10-30T17:59:55.334Z,66.02
2022-10-30T18:02:23.863Z,66.07
2022-10-30T18:04:54.903Z,66.01
2022-10-30T18:07:23.048Z,66.03
2022-10-30T18:09:51.511Z,66.17
2022-10-30T18:12:20.063Z,66.26
2022-10-30T18:14:48.258Z,66.28
2022-10-30T18:17:16.543Z,66.27
2022-10-30T18:19:44.755Z,66.27
2022-10-30T18:22:14.011Z,66.29
2022-10-30T18:24:43.246Z,66.27
2022-10-30T18:27:11.669Z,66.34
2022-10-30T18:29:40.142Z,66.42
2022-10-30T18:32:10.293Z,66.41
2022-10-30T18:34:38.389Z,66.47
2022-10-30T18:37:07.078Z,66.43
2022-10-30T18:42:09.573Z,66.47
2022-10-30T18:44:38.049Z,66.51
2022-10-30T18:47:11.108Z,66.51
2022-10-30T18:49:39.814Z,66.58
2022-10-30T18:52:09.184Z,66.67
2022-10-30T18:54:37.398Z,66.68
2022-10-30T18:57:05.966Z,66.68
2022-10-30T18:59:35.070Z,66.76
2022-10-30T19:02:03.546Z,66.77
2022-10-30T19:04:32.332Z,66.71
2022-10-30T19:07:00.463Z,66.74
2022-10-30T19:09:28.599Z,66.84
2022-10-30T19:11:57.185Z,66.77
2022-10-30T19:14:25.624Z,66.83
2022-10-30T19:16:53.716Z,66.83
2022-10-30T19:19:22.426Z,66.95
2022-10-30T19:21:51.964Z,66.90
2022-10-30T19:24:20.135Z,66.95
2022-10-30T19:26:48.486Z,66.98
2022-10-30T19:29:19.657Z,66.97
2022-10-30T19:31:47.735Z,67.05
2022-10-30T19:34:16.534Z,67.03
2022-10-30T19:36:44.805Z,67.12
2022-10-30T19:39:17.048Z,67.11
2022-10-30T19:41:46.289Z,67.17
2022-10-30T19:44:14.401Z,67.20
